Pietro Sanna

Scout - Catania
3 Feb 2028
Thursday
Process

Personality

Adaptability (1) Ambition (10) Controversy (12) Loyalty (9) Pressure (20) Professionalism (20) Sportsmanship (4) Temperament (14)

Profile

Coaching Style Democratic
License National B
Determination 3
Man Management 8
Motivating 4
Discipline 5
Job Satisfaction
100%
Fatigue
0%
Role Scout
Wage 50.9K p/w
Contract 14.03.2029

Performance

Behaviour Good
Training Effectiveness
28%
Player Development
45%
Injury Prevention
30%
Tactical Implementation
25%

Recent Events

Attended a recruitment meeting now
Attended a recruitment meeting 7d ago
Recommended a transfer target 7d ago
Assessed a player 14d ago
Attended a recruitment meeting 14d ago
Attending professional development 14d ago
Attending professional development 14d ago
Attending professional development 14d ago

Currently Monitoring

102
Player Club Status Ability Confidence Watched Last Observed Latest Vote
Iacopo Cernigoi Virtus Verona Active 107 / 93 65% 1 31.01.2028 Approve
Davide Agazzi Campobasso Active 90 / 100 65% 1 24.01.2028 Approve
Brian Nievas Chaco For Ever Active 105 / 117 40% 1 17.01.2028 -
Gonzalo Córdoba Mitre Active 99 / 103 40% 1 17.01.2028 -
Nicola Mosti Catanzaro Active 116 / 117 40% 1 06.01.2028 -
Liam Henderson Sampdoria Active 137 / 134 40% 1 06.01.2028 -
Pietro Martino Casertana Active 100 / 113 40% 1 20.08.2027 -
Corrado Riviera Renate Active 100 / 119 40% 1 20.08.2027 -
Mehdi Boussaïd Pianese Active 99 / 105 40% 2 18.08.2027 -
Joshua Tenkorang Ravenna Active 110 / 113 40% 1 18.08.2027 -
Bartosz Mrozek Udinese Active 134 / 133 40% 1 17.08.2027 -
Miloš Bočić Altamura Active 105 / 93 40% 1 17.08.2027 -
Christian D'Urso Triestina Active 111 / 105 40% 1 17.08.2027 -
Sergio Rodelas Granada Active 109 / 118 40% 2 16.08.2027 -
Matteo Stoppa Campobasso Active 110 / 112 40% 1 16.08.2027 -
Pablo García Gijón Active 107 / 119 40% 2 13.08.2027 -
Abdoul Guiebré Ascoli Active 123 / 104 40% 2 12.08.2027 -
Mohamed Mallahi Pro Vercelli Active 104 / 115 40% 1 12.08.2027 -
Pablo Vitali Pontedera Active 102 / 111 40% 4 11.08.2027 -
Michele Emmausso Cosenza Active 98 / 107 40% 1 11.08.2027 -
Lorenzo Di Stefano Torres Active 110 / 112 40% 2 10.08.2027 -
Federico Casolari Cittadella Active 105 / 125 40% 1 10.08.2027 -
Shaq Forde Bristol Rovers Active 107 / 96 40% 1 09.08.2027 -
Filippo Bandinelli Spezia Active 122 / 120 40% 2 07.08.2027 -
Pasquale Giannotti Trento Active 111 / 106 40% 1 07.08.2027 -
Federico Giraudo Casarano Active 120 / 113 40% 3 06.08.2027 -
Mauro Casoli Giugliano Active 120 / 108 40% 3 06.08.2027 -
Lorenzo Andrenacci Lumezzane Active 124 / 119 40% 1 06.08.2027 -
Giuseppe Panico Foggia Active 115 / 119 40% 3 04.08.2027 -
Ibrahima Mbaye Altamura Active 126 / 111 40% 1 04.08.2027 -
Gady Beyuku Modena Active 125 / 116 40% 2 03.08.2027 -
Nicola Dalmonte Trento Active 105 / 113 40% 1 03.08.2027 -
Thomas Sandon Vicenza Active 119 / 112 40% 1 02.08.2027 -
Luca Clemenza Dolomiti Bellunesi Active 110 / 99 40% 2 01.08.2027 -
Luca Vignali Virtus Entella Active 123 / 118 40% 3 30.07.2027 -
Joaquín Mendive Tristán Suárez Active 99 / 106 40% 2 29.07.2027 -
Carmine Cretella Audace Cerignola Active 117 / 101 40% 2 29.07.2027 -
Francesco Orlando Cavese Active 93 / 100 40% 1 29.07.2027 -
Gianluca Saro Foggia Active 123 / 107 40% 1 29.07.2027 -
Ismail Achik Salernitana Active 98 / 103 40% 1 27.07.2027 -
Daniele Sommariva Arzignano Active 117 / 104 40% 1 27.07.2027 -
Jacopo Sassi Sambenedettese Active 118 / 110 40% 1 27.07.2027 -
Francesco Corsinelli Torres Active 110 / 115 40% 2 24.07.2027 -
Enrico Brignola Ternana Active 99 / 109 40% 2 22.07.2027 -
Samuele Vitale Ascoli Active 121 / 124 40% 1 22.07.2027 -
Luca Gemello Perugia Active 120 / 109 40% 1 22.07.2027 -
Luca Petrungaro Potenza Active 109 / 98 40% 2 21.07.2027 -
Ruly Grimsby Town Active 116 / 112 40% 1 20.07.2027 -
Sergio Barlocco Trento Active 114 / 113 40% 1 20.07.2027 -
Francesco Di Mariano Padova Active 128 / 120 40% 2 18.07.2027 -
Edoardo Duca Ravenna Active 99 / 111 40% 2 17.07.2027 -
Roberto Ramírez Godoy Cruz Active 128 / 119 40% 1 16.07.2027 -
Ciro Loreto Cavese Active 108 / 105 40% 1 15.07.2027 -
Leonardo Capezzi Sorrento Active 118 / 117 40% 4 14.07.2027 -
Nicola Murru Gubbio Active 112 / 115 40% 2 14.07.2027 -
Erickson Gallardo Zamora Active 107 / 116 40% 1 14.07.2027 -
Fabio Cariolato Arzignano Active 115 / 110 40% 1 14.07.2027 -
Andrea Cagnano Arezzo Active 128 / 122 40% 1 13.07.2027 -
Flavio Ciuferri Trapani Active 102 / 115 40% 1 11.07.2027 -
Leonardo Di Cosmo Novara Active 99 / 108 40% 1 10.07.2027 -
Ethan Bristow Tranmere Rovers Active 90 / 102 40% 1 10.07.2027 -
Maxime Leverbe Vicenza Active 124 / 121 40% 1 10.07.2027 -
Emanuele Anastasia Cittadella Active 114 / 100 40% 1 08.07.2027 -
Lorenco Šimić Avellino Active 128 / 110 40% 2 07.07.2027 -
Maxime Giron Foggia Active 106 / 106 40% 1 07.07.2027 -
Gianmarco Vannucchi Benevento Active 113 / 125 40% 1 06.07.2027 -
Leonardo Marson Gubbio Active 105 / 101 40% 1 05.07.2027 -
Tony Springett Lecco Active 113 / 103 40% 1 03.07.2027 -
Nicolás Schiavi Carrarese Active 108 / 114 40% 1 02.07.2027 -
Alessandro Fontanarosa Avellino Active 121 / 126 40% 1 02.07.2027 -
Giovanni Corradini Ascoli Active 113 / 108 40% 1 28.06.2027 -
Francesco D'Alessio Cittadella Active 118 / 118 40% 1 26.06.2027 -
Mattia Muroni Alcione Milano Active 94 / 113 40% 1 26.06.2027 -
Alessio Insignito Spezia Active 89 / 110 40% 1 25.06.2027 -
Liam Kerrigan Ternana Active 112 / 105 40% 1 24.06.2027 -
Alessio Riccardi Latina Active 101 / 107 40% 1 24.06.2027 -
Simone Iob Siracusa Active 109 / 106 40% 1 23.06.2027 -
Filippo Frison Trento Active 93 / 97 40% 1 23.06.2027 -
Elia Summa Picerno Active 119 / 121 40% 1 22.06.2027 -
Matteo Borsoi Pineto Active 99 / 107 40% 2 21.06.2027 -
Giuseppe Fella Cavese Active 106 / 108 58% 1 21.06.2027 Approve
Beryly Lubala Vicenza Active 93 / 103 40% 1 21.06.2027 -
Antonio Metlika Lecco Active 106 / 105 40% 1 21.06.2027 -
Davide Bove Monopoli Active 106 / 103 40% 1 20.06.2027 -
Vinícius Crotone Active 96 / 102 40% 1 19.06.2027 -
Ilario Iotti Pro Vercelli Active 106 / 97 40% 1 17.06.2027 -
Cristiano Bani Ravenna Active 121 / 118 40% 1 16.06.2027 -
Mattia Iori Lumezzane Active 104 / 108 40% 1 15.06.2027 -
Kristjan Matošević Triestina Active 101 / 109 40% 1 15.06.2027 -
Alessandro Caporale Casertana Active 117 / 116 40% 1 15.06.2027 -
Sanasi Sy Pontedera Active 97 / 104 40% 1 15.06.2027 -
Giacomo Sali AlbinoLeffe Active 99 / 103 40% 1 13.06.2027 -
Đorđe Pantelić Spartak Kostroma Active 96 / 108 40% 1 09.06.2027 -
Sergio Maselli Picerno Active 109 / 112 40% 1 08.06.2027 -
Manuele Malotti Livorno Active 97 / 108 40% 1 08.06.2027 -
Ilja Agapov Ufa Active 128 / 110 40% 1 13.01.2027 -
Simeon Petrov Botev Plovdiv Active 93 / 114 40% 1 13.01.2027 -
Cosimo Chiricò Casarano Active 110 / 102 55% 1 11.01.2027 -
Alex Redolfi Cittadella Active 121 / 103 40% 1 11.01.2027 -
Morgan Erasmus Ajax Cape Town Active 112 / 118 40% 1 11.01.2027 -
Andrei Moţoc Trapani Active 95 / 106 55% 1 01.01.2027 -
Marco Moscati Lumezzane Active 93 / 90 55% 1 31.08.2026 -